Weather at Doosan We’ve Cummins New Town Apartments Heliports

Public forecast

Using degrees Celsius for public forecast. Weather courtesy of forecast.io.

Closest aviation weather report (METAR) to Doosan We’ve Cummins New Town Apartments Heliports

Closest report is Gimhae International Airport, 6.4 nm (11.9 km) WNW. Retrieved 2020/09/24 00:00 UTC (46 minutes ago):

RKPK 240000Z 36012KT 9999 SCT030 BKN070 BKN180 22/15 Q1014

Closest aviation forecast (TAF) to Doosan We’ve Cummins New Town Apartments Heliports

Closest forecast is Gimhae International Airport, 6.4 nm (11.9 km) WNW. Retrieved 2020-09-24 00:00 UTC (46 minutes ago):

TAF RKPK 232300Z 2400/2506 36010KT 9999 SCT030 BKN100 TX24/2406Z TN16/2421Z BECMG 2405/2409 BKN030 BKN100